Data for 08/09/2005

Time Sea-Level Adjusted Pressure Absolute Pressure Temperature Relative Humidity Dew Point   
(mb) (inHg) (mb) (inHg) (C) (F) (%) (C) (F)
00:05 1021 30.15 851 25.13 18.2 64.7 59 10.2 50.3
00:10 1022 30.18 851 25.13 18.2 64.7 60 10.4 50.7
00:15 1022 30.18 851 25.13 18.1 64.5 60 10.3 50.6
00:20 1022 30.18 851 25.13 17.8 64.1 61 10.4 50.6
00:25 1022 30.18 851 25.13 17.6 63.7 62 10.3 50.6
00:30 1022 30.18 851 25.13 17.6 63.6 62 10.3 50.6
00:35 1022 30.18 851 25.13 17.5 63.6 63 10.4 50.8
00:40 1022 30.18 851 25.13 17.7 63.8 61 10.2 50.4
00:45 1022 30.18 851 25.13 17.8 64 61 10.4 50.6
00:50 1022 30.18 851 25.13 17.6 63.6 65 11.1 51.9
00:55 1022 30.18 851 25.13 17.2 62.9 66 10.8 51.4
01:00 1022 30.18 851 25.13 16.8 62.3 67 10.7 51.3
01:05 1022 30.18 851 25.13 16.7 62 67 10.6 51
01:10 1022 30.18 851 25.13 16.8 62.3 65 10.3 50.6
01:15 1022 30.18 851 25.13 17.1 62.8 65 10.6 51.1
01:20 1022 30.18 851 25.13 17.4 63.2 63 10.2 50.4
01:25 1022 30.18 851 25.13 17.4 63.3 63 10.4 50.8
01:30 1022 30.18 851 25.13 17.3 63.2 66 11 51.8
01:35 1022 30.18 851 25.13 17 62.7 67 10.9 51.6
01:40 1022 30.18 851 25.13 16.8 62.2 68 10.9 51.6
01:45 1021 30.15 851 25.13 16.7 62 68 10.8 51.5
01:50 1021 30.15 850 25.1 16.6 62 68 10.8 51.4
01:55 1021 30.15 850 25.1 16.7 62 64 9.9 49.7
02:00 1021 30.15 850 25.1 17 62.6 66 10.7 51.3
02:05 1021 30.15 850 25.1 17 62.6 64 10.2 50.4
02:10 1021 30.15 850 25.1 17.2 63 66 10.8 51.5
02:15 1021 30.15 850 25.1 16.7 62.1 70 11.2 52.2
02:20 1021 30.15 850 25.1 16.4 61.6 69 10.8 51.4
02:25 1021 30.15 850 25.1 16.4 61.5 70 11 51.8
02:30 1021 30.15 850 25.1 16.2 61.1 71 11 51.7
02:35 1021 30.15 850 25.1 16.2 61.2 69 10.5 50.9
02:40 1021 30.15 850 25.1 16.4 61.6 70 10.9 51.7
02:45 1021 30.15 850 25.1 16.2 61.2 69 10.5 50.9
02:50 1021 30.15 850 25.1 16.6 61.8 67 10.5 50.9
02:55 1021 30.15 850 25.1 16.6 61.8 68 10.7 51.3
03:00 1021 30.15 850 25.1 16.6 61.8 69 11 51.8
03:05 1021 30.15 850 25.1 16.6 61.9 70 11.1 52
03:10 1021 30.15 850 25.1 16.7 62 66 10.4 50.6
03:15 1021 30.15 850 25.1 16.6 62 67 10.7 51.2
03:20 1021 30.15 850 25.1 16.5 61.7 66 10.3 50.5
03:25 1021 30.15 850 25.1 16.6 61.8 67 10.4 50.8
03:30 1021 30.15 850 25.1 16.5 61.7 67 10.3 50.6
03:35 1021 30.15 850 25.1 16.4 61.5 68 10.4 50.8
03:40 1021 30.15 850 25.1 16.3 61.3 68 10.6 51
03:45 1021 30.15 850 25.1 16.3 61.3 68 10.4 50.7
03:50 1021 30.15 850 25.1 16.4 61.5 67 10.3 50.5
03:55 1021 30.15 850 25.1 16.5 61.6 68 10.6 51.1
04:00 1021 30.15 851 25.13 16.5 61.8 69 10.8 51.5
04:05 1021 30.15 851 25.13 16.5 61.7 69 10.8 51.5
04:10 1022 30.18 851 25.13 16.5 61.7 71 11.2 52.1
04:15 1022 30.18 851 25.13 16.2 61.2 72 11.3 52.4
04:20 1022 30.18 851 25.13 16.1 61 72 11.2 52.2
04:25 1022 30.18 851 25.13 16 60.8 74 11.4 52.5
04:30 1022 30.18 851 25.13 15.6 60.1 74 11.1 52.1
04:35 1022 30.18 851 25.13 15.5 59.9 76 11.4 52.5
04:40 1022 30.18 851 25.13 15.2 59.3 78 11.3 52.4
04:45 1022 30.18 851 25.13 15.1 59.2 78 11.3 52.3
04:50 1022 30.18 851 25.13 15 59 78 11.2 52.1
04:55 1022 30.18 851 25.13 14.8 58.6 80 11.5 52.7
05:00 1022 30.18 851 25.13 14.4 58 81 11.2 52.1
05:05 1022 30.18 851 25.13 14.6 58.3 80 11.2 52.1
05:10 1022 30.18 851 25.13 14.6 58.3 81 11.3 52.4
05:15 1022 30.18 851 25.13 14.4 57.8 83 11.5 52.7
05:20 1022 30.18 851 25.13 14.1 57.4 83 11.4 52.4
05:25 1022 30.18 851 25.13 14.2 57.5 83 11.3 52.3
05:30 1022 30.18 851 25.13 14.2 57.5 83 11.3 52.3
05:35 1022 30.18 851 25.13 14.2 57.5 82 11.2 52.1
05:40 1022 30.18 851 25.13 13.9 57 83 11.1 52
05:45 1022 30.18 851 25.13 13.9 57 85 11.4 52.5
05:50 1022 30.18 851 25.13 14 57.1 82 11 51.8
05:55 1022 30.18 851 25.13 13.8 56.8 83 10.9 51.6
06:00 1022 30.18 852 25.16 13.9 57 82 10.9 51.6
06:05 1022 30.18 852 25.16 14.1 57.3 81 10.8 51.4
06:10 1022 30.18 852 25.16 14.1 57.5 80 10.9 51.5
06:15 1022 30.18 852 25.16 14.1 57.5 81 11 51.8
06:20 1022 30.18 852 25.16 14 57.2 81 10.7 51.3
06:25 1022 30.18 852 25.16 13.6 56.6 83 10.8 51.4
06:30 1023 30.21 852 25.16 13.1 55.7 84 10.5 50.8
06:35 1022 30.18 852 25.16 13.3 55.9 82 10.2 50.4
06:40 1022 30.18 852 25.16 13.2 55.8 82 10.3 50.6
06:45 1022 30.18 852 25.16 13.2 55.8 82 10.2 50.4
06:50 1022 30.18 852 25.16 13.4 56.1 81 10.2 50.3
06:55 1022 30.18 852 25.16 13.6 56.4 80 10.2 50.4
07:00 1023 30.21 852 25.16 13.7 56.7 79 10.2 50.3
07:05 1023 30.21 852 25.16 13.9 57 78 10.2 50.3
07:10 1023 30.21 852 25.16 14.2 57.6 77 10.3 50.5
07:15 1023 30.21 852 25.16 14.3 57.8 76 10.2 50.3
07:20 1023 30.21 852 25.16 14.7 58.4 74 10.1 50.2
07:25 1023 30.21 852 25.16 14.9 58.8 73 10.1 50.2
07:30 1023 30.21 852 25.16 15 58.9 72 10 50.1
07:35 1023 30.21 852 25.16 15.2 59.4 71 9.9 49.9
07:40 1023 30.21 852 25.16 15.4 59.8 70 10.1 50.1
07:45 1023 30.21 852 25.16 15.5 60 69 10 49.9
07:50 1023 30.21 852 25.16 15.6 60.1 70 10.2 50.3
07:55 1023 30.21 852 25.16 15.6 60.1 70 10.1 50.2
08:00 1023 30.21 852 25.16 15.8 60.4 70 10.3 50.5
08:05 1023 30.21 852 25.16 15.8 60.4 70 10.3 50.6
08:10 1023 30.21 852 25.16 15.9 60.5 70 10.5 50.9
08:15 1023 30.21 852 25.16 16 60.8 70 10.6 51
08:20 1023 30.21 852 25.16 16 60.9 70 10.6 51.1
08:25 1023 30.21 852 25.16 16.1 60.9 70 10.7 51.3
08:30 1023 30.21 853 25.19 16.2 61.2 70 10.7 51.3
08:35 1023 30.21 853 25.19 16.4 61.5 71 11.2 52.2
08:40 1023 30.21 853 25.19 15.9 60.7 73 11.2 52.2
08:45 1024 30.24 853 25.19 15.6 60.1 74 11 51.9
08:50 1024 30.24 853 25.19 15.7 60.3 74 11.2 52.1
08:55 1024 30.24 853 25.19 15.9 60.6 73 11.1 51.9
09:00 1024 30.24 853 25.19 15.7 60.3 74 11.2 52.1
09:05 1024 30.24 853 25.19 16.1 60.9 73 11.2 52.2
09:10 1024 30.24 853 25.19 16.1 60.9 73 11.3 52.3
09:15 1024 30.24 853 25.19 16.4 61.6 72 11.3 52.4
09:20 1025 30.27 854 25.22 17.1 62.8 69 11.5 52.7
09:25 1025 30.27 854 25.22 17 62.6 69 11.4 52.5
09:30 1025 30.27 854 25.22 17 62.6 68 11.2 52.1
09:35 1025 30.27 854 25.22 16.8 62.3 69 11.1 52.1
09:40 1025 30.27 854 25.22 16.5 61.6 70 11.1 52
09:45 1025 30.27 854 25.22 16.6 61.9 69 10.9 51.6
09:50 1025 30.27 854 25.22 16.9 62.5 67 10.9 51.7
09:55 1025 30.27 854 25.22 17 62.6 67 11 51.7
10:00 1025 30.27 854 25.22 16.7 62 70 11.1 52
10:05 1024 30.24 853 25.19 15.9 60.6 73 11.1 51.9
10:10 1024 30.24 853 25.19 15.6 60.1 74 11.1 51.9
10:15 1024 30.24 853 25.19 15.9 60.6 72 10.8 51.4
10:20 1024 30.24 854 25.22 17.2 63 65 10.7 51.2
10:25 1025 30.27 854 25.22 18.4 65.2 61 10.8 51.4
10:30 1025 30.27 854 25.22 18.7 65.6 62 11.3 52.4
10:35 1025 30.27 854 25.22 18 64.3 65 11.3 52.4
10:40 1025 30.27 854 25.22 17.7 63.8 67 11.5 52.8
10:45 1025 30.27 854 25.22 18 64.3 63 11 51.7
10:50 1024 30.24 854 25.22 18.8 65.8 61 11.3 52.4
10:55 1024 30.24 853 25.19 18.5 65.3 63 11.5 52.7
11:00 1024 30.24 853 25.19 17.9 64.3 65 11.3 52.3
11:05 1024 30.24 853 25.19 18.2 64.8 65 11.6 52.8
11:10 1023 30.21 853 25.19 18.3 64.9 62 10.9 51.6
11:15 1023 30.21 852 25.16 18.2 64.8 64 11.4 52.5
11:20 1023 30.21 852 25.16 18.7 65.7 61 11.2 52.2
11:25 1023 30.21 852 25.16 18.9 65.9 62 11.4 52.5
11:30 1023 30.21 852 25.16 19.1 66.3 57 10.4 50.8
11:35 1023 30.21 852 25.16 19.3 66.7 56 10.4 50.7
11:40 1023 30.21 852 25.16 19.9 67.7 57 11.1 52
11:45 1022 30.18 852 25.16 20.7 69.2 54 11.1 52
11:50 1022 30.18 851 25.13 21 69.8 55 11.7 53
11:55 1022 30.18 851 25.13 21.8 71.2 52 11.5 52.7
12:00 1022 30.18 851 25.13 21.9 71.3 51 11.5 52.7
12:05 1022 30.18 851 25.13 22.4 72.2 47 10.8 51.4
12:10 1022 30.18 851 25.13 22.7 72.9 49 11.7 53.1
12:15 1022 30.18 851 25.13 23 73.5 45 10.7 51.3
12:20 1022 30.18 851 25.13 23.7 74.7 39 9.3 48.8
12:25 1022 30.18 851 25.13 24.3 75.8 35 8.2 46.8
12:30 1022 30.18 851 25.13 24.7 76.5 38 9.7 49.4
12:35 1022 30.18 851 25.13 24.2 75.6 39 9.6 49.3
12:40 1022 30.18 851 25.13 24.1 75.3 36 8.3 46.9
12:45 1022 30.18 851 25.13 24.5 76.1 35 8.3 47
12:50 1022 30.18 851 25.13 24.7 76.5 34 7.9 46.2
12:55 1022 30.18 851 25.13 25.2 77.3 34 8.4 47.1
13:00 1022 30.18 851 25.13 25.8 78.4 33 8.7 47.6
13:05 1022 30.18 851 25.13 26.5 79.8 33 9.1 48.4
13:10 1022 30.18 851 25.13 27.1 80.7 32 9 48.2
13:15 1022 30.18 851 25.13 27.1 80.8 32 9.2 48.5
13:20 1022 30.18 851 25.13 26.5 79.7 32 8.9 48.1
13:25 1021 30.15 851 25.13 27.2 80.9 32 9.2 48.6
13:30 1021 30.15 851 25.13 27.7 81.9 30 8.9 48.1
13:35 1021 30.15 850 25.1 27.6 81.7 31 9.1 48.3
13:40 1021 30.15 850 25.1 27 80.7 31 8.5 47.4
13:45 1021 30.15 850 25.1 27.5 81.4 30 8.7 47.7
13:50 1021 30.15 850 25.1 28 82.4 28 8.1 46.5
13:55 1021 30.15 850 25.1 28 82.3 30 9.1 48.4
14:00 1021 30.15 850 25.1 27.7 81.8 29 8.2 46.7
14:05 1021 30.15 850 25.1 28.2 82.7 27 7.9 46.2
14:10 1021 30.15 850 25.1 28 82.4 28 8.3 46.9
14:15 1021 30.15 850 25.1 28.2 82.8 27 7.8 46
14:20 1021 30.15 850 25.1 28.9 83.9 26 7.5 45.6
14:25 1021 30.15 850 25.1 28.6 83.4 27 8.3 47
14:30 1021 30.15 850 25.1 28.5 83.4 27 8.1 46.7
14:35 1021 30.15 850 25.1 28.5 83.3 29 9.2 48.6
14:40 1021 30.15 850 25.1 28.3 83 29 8.9 48
14:45 1021 30.15 850 25.1 28.3 82.9 28 8.4 47.1
14:50 1021 30.15 850 25.1 28.6 83.4 28 8.7 47.6
14:55 1021 30.15 850 25.1 28.7 83.7 28 8.5 47.3
15:00 1021 30.15 850 25.1 29.2 84.5 27 8.4 47.2
15:05 1020 30.12 850 25.1 29 84.2 26 8.1 46.6
15:10 1020 30.12 850 25.1 28.9 84 27 8.3 46.9
15:15 1020 30.12 849 25.07 28.9 84 27 8.1 46.6
15:20 1020 30.12 849 25.07 29.3 84.8 24 7.3 45.2
15:25 1020 30.12 849 25.07 29.3 84.7 27 8.5 47.3
15:30 1020 30.12 849 25.07 29.4 84.8 26 8.1 46.7
15:35 1020 30.12 849 25.07 29.8 85.7 24 7.5 45.5
15:40 1020 30.12 849 25.07 30.3 86.6 24 7.7 45.9
15:45 1020 30.12 849 25.07 30.7 87.3 23 7.8 46
15:50 1020 30.12 849 25.07 30.8 87.5 24 8.2 46.7
15:55 1020 30.12 849 25.07 29.8 85.6 25 8.2 46.8
16:00 1020 30.12 849 25.07 29.1 84.4 25 7.7 45.8
16:05 1020 30.12 849 25.07 29.1 84.5 25 7.6 45.6
16:10 1019 30.09 849 25.07 29.4 84.9 25 7.5 45.4
16:15 1019 30.09 849 25.07 29.2 84.6 24 7.1 44.8
16:20 1019 30.09 849 25.07 29.3 84.8 25 7.6 45.8
16:25 1019 30.09 849 25.07 29.4 84.9 27 8.5 47.3
16:30 1019 30.09 848 25.04 28.7 83.7 25 7.2 44.9
16:35 1019 30.09 848 25.04 28.4 83.1 26 7.1 44.8
16:40 1019 30.09 848 25.04 28.6 83.5 24 6.7 44
16:45 1019 30.09 848 25.04 29.1 84.4 23 6.2 43.1
16:50 1019 30.09 848 25.04 28.9 84.1 22 5.3 41.6
16:55 1019 30.09 848 25.04 29.5 85.1 21 5.5 41.9
17:00 1019 30.09 848 25.04 30 86 18 3.8 38.9
17:05 1019 30.09 848 25.04 30.6 87 19 5 41
17:10 1019 30.09 848 25.04 31 87.7 18 4.2 39.5
17:15 1019 30.09 848 25.04 30.5 86.8 20 5.5 41.9
17:20 1019 30.09 848 25.04 29.8 85.7 19 4.2 39.6
17:25 1019 30.09 848 25.04 29 84.2 21 4.9 40.8
17:30 1019 30.09 848 25.04 28.8 83.9 20 3.7 38.7
17:35 1019 30.09 848 25.04 28.9 83.9 20 3.9 39
17:40 1019 30.09 848 25.04 28.4 83.1 20 3.7 38.6
17:45 1019 30.09 848 25.04 28.3 83 20 3.5 38.2
17:50 1019 30.09 848 25.04 28.5 83.2 20 3.8 38.8
17:55 1019 30.09 848 25.04 28.5 83.4 21 4.6 40.2
18:00 1019 30.09 848 25.04 28.2 82.7 22 4.8 40.6
18:05 1019 30.09 848 25.04 27.8 82 19 2.6 36.7
18:10 1018 30.06 848 25.04 27.6 81.6 20 3 37.3
18:15 1018 30.06 848 25.04 27.3 81.2 20 2.9 37.2
18:20 1018 30.06 848 25.04 27.2 80.9 22 3.8 38.9
18:25 1018 30.06 847 25.01 27 80.5 22 3.7 38.7
18:30 1018 30.06 847 25.01 26.8 80.3 21 3.1 37.6
18:35 1018 30.06 847 25.01 26.7 80.1 24 4.6 40.3
18:40 1019 30.09 848 25.04 26.2 79.1 30 7.4 45.4
18:45 1020 30.12 849 25.07 24.9 76.8 44 11.9 53.4
18:50 1020 30.12 849 25.07 21.3 70.3 63 14 57.2
18:55 1020 30.12 849 25.07 19.3 66.7 57 10.6 51
19:00 1020 30.12 849 25.07 20.2 68.3 48 8.9 47.9
19:05 1020 30.12 849 25.07 21.3 70.3 44 8.7 47.7
19:10 1020 30.12 849 25.07 20.9 69.5 44 8.3 47
19:15 1020 30.12 849 25.07 20.9 69.6 42 7.7 45.9
19:20 1020 30.12 849 25.07 21.7 71.1 56 12.6 54.7
19:25 1021 30.15 850 25.1 20.4 68.7 55 11.1 52
19:30 1021 30.15 851 25.13 19.9 67.9 52 9.9 49.8
19:35 1022 30.18 851 25.13 19 66.3 65 12.5 54.5
19:40 1022 30.18 852 25.16 17.4 63.3 71 12.2 53.9
19:45 1023 30.21 852 25.16 16.8 62.2 73 12.1 53.7
19:50 1023 30.21 852 25.16 16.4 61.5 78 12.6 54.7
19:55 1023 30.21 852 25.16 16.3 61.3 76 12.2 53.9
20:00 1023 30.21 852 25.16 16.1 61 78 12.4 54.4
20:05 1023 30.21 852 25.16 16.2 61.2 80 12.8 55
20:10 1023 30.21 852 25.16 16 60.8 83 13.1 55.6
20:15 1022 30.18 851 25.13 15.7 60.3 84 13.1 55.5
20:20 1022 30.18 851 25.13 15.4 59.7 87 13.3 56
20:25 1022 30.18 851 25.13 15.3 59.6 86 12.9 55.3
20:30 1022 30.18 851 25.13 15.3 59.6 84 12.6 54.7
20:35 1022 30.18 851 25.13 15.5 59.8 85 13 55.4
20:40 1022 30.18 851 25.13 15.4 59.7 84 12.7 54.8
20:45 1022 30.18 851 25.13 15.3 59.5 83 12.4 54.3
20:50 1021 30.15 851 25.13 15.2 59.3 87 13.1 55.5
20:55 1021 30.15 851 25.13 14.9 58.8 87 12.7 54.9
21:00 1021 30.15 850 25.1 15.1 59.2 81 11.9 53.5
21:05 1021 30.15 850 25.1 15.6 60.1 79 12 53.6
21:10 1021 30.15 850 25.1 15.5 59.9 81 12.4 54.3
21:15 1021 30.15 850 25.1 15.3 59.5 80 11.8 53.3
21:20 1021 30.15 850 25.1 15.5 59.9 80 12 53.6
21:25 1021 30.15 850 25.1 15.5 59.8 80 12 53.7
21:30 1021 30.15 850 25.1 15.4 59.7 80 12.1 53.7
21:35 1021 30.15 850 25.1 15.3 59.6 81 12 53.6
21:40 1021 30.15 850 25.1 15.3 59.5 80 11.9 53.5
21:45 1021 30.15 850 25.1 15.3 59.5 79 11.8 53.2
21:50 1021 30.15 850 25.1 15.3 59.6 78 11.6 53
21:55 1021 30.15 850 25.1 15.5 59.9 77 11.6 52.9
22:00 1021 30.15 850 25.1 15.6 60.1 76 11.5 52.7
22:05 1021 30.15 850 25.1 15.7 60.2 75 11.3 52.4
22:10 1021 30.15 850 25.1 15.7 60.2 76 11.4 52.6
22:15 1021 30.15 850 25.1 15.5 59.9 78 11.6 52.9
22:20 1021 30.15 850 25.1 15.5 59.9 77 11.5 52.7
22:25 1021 30.15 850 25.1 15.5 59.8 77 11.5 52.7
22:30 1021 30.15 850 25.1 15.4 59.8 77 11.5 52.7
22:35 1021 30.15 850 25.1 15.6 60 75 11.2 52.2
22:40 1021 30.15 850 25.1 15.7 60.2 75 11.2 52.2
22:45 1021 30.15 850 25.1 15.8 60.4 75 11.4 52.5
22:50 1021 30.15 850 25.1 15.6 60.1 76 11.5 52.6
22:55 1021 30.15 850 25.1 15.5 59.8 77 11.4 52.6
23:00 1021 30.15 850 25.1 15.3 59.6 78 11.4 52.6
23:05 1021 30.15 850 25.1 15.2 59.3 79 11.5 52.8
23:10 1021 30.15 850 25.1 15 59.1 78 11.3 52.4
23:15 1021 30.15 850 25.1 15.1 59.2 77 11.1 52
23:20 1021 30.15 850 25.1 15 59.1 82 12.1 53.7
23:25 1021 30.15 850 25.1 15.3 59.6 75 11 51.8
23:30 1021 30.15 850 25.1 15.4 59.6 76 11.1 52.1
23:35 1021 30.15 850 25.1 15.3 59.6 75 11 51.8
23:40 1021 30.15 850 25.1 15.5 59.8 75 11.1 51.9
23:45 1021 30.15 850 25.1 15.2 59.4 77 11.3 52.3
23:50 1021 30.15 850 25.1 15.2 59.3 77 11.1 52
23:55 1021 30.15 850 25.1 15 59 78 11.2 52.2
24:00 1021 30.15 850 25.1 14.8 58.6 79 11.2 52.2